createdAt,value
2018-09-19T00:00:50.057Z,10.20
2018-09-19T00:15:49.833Z,10.48
2018-09-19T00:30:49.728Z,10.58
2018-09-19T00:45:50.227Z,9.30
2018-09-19T01:00:51.358Z,7.80
2018-09-19T01:15:51.301Z,9.63
2018-09-19T01:30:50.797Z,13.53
2018-09-19T01:45:52.058Z,13.68
2018-09-19T02:00:52.640Z,12.05
2018-09-19T02:15:50.672Z,12.90
2018-09-19T02:30:50.660Z,11.20
2018-09-19T02:45:51.049Z,10.25
2018-09-19T03:00:51.066Z,10.88
2018-09-19T03:15:56.645Z,8.75
2018-09-19T03:30:51.031Z,10.10
2018-09-19T03:45:53.026Z,11.15
2018-09-19T04:00:51.460Z,12.63
2018-09-19T04:15:51.734Z,13.60
2018-09-19T04:30:53.598Z,11.55
2018-09-19T04:45:51.179Z,12.90
2018-09-19T05:00:50.698Z,12.65
2018-09-19T05:15:50.786Z,13.60
2018-09-19T05:30:50.311Z,10.80
2018-09-19T05:45:52.073Z,13.28
2018-09-19T06:00:52.298Z,15.32
2018-09-19T06:15:51.280Z,10.48
2018-09-19T06:30:51.228Z,16.07
2018-09-19T06:45:54.255Z,10.10
2018-09-19T07:00:50.532Z,10.82
2018-09-19T07:15:51.036Z,13.13
2018-09-19T07:30:52.538Z,14.25
2018-09-19T07:45:50.509Z,10.80
2018-09-19T08:00:52.551Z,10.37
2018-09-19T08:15:53.443Z,9.00
2018-09-19T08:30:51.332Z,9.50
2018-09-19T08:45:56.807Z,13.20
2018-09-19T09:00:51.174Z,8.77
2018-09-19T09:15:52.199Z,8.30
2018-09-19T09:30:50.606Z,8.07
2018-09-19T09:45:51.175Z,7.87
2018-09-19T10:00:52.536Z,8.33
2018-09-19T10:15:50.819Z,8.87
2018-09-19T10:30:50.963Z,7.50
2018-09-19T10:45:51.552Z,6.97
2018-09-19T11:00:50.797Z,7.90
2018-09-19T11:15:52.825Z,7.12
2018-09-19T11:30:50.738Z,5.87
2018-09-19T11:45:50.706Z,6.65
2018-09-19T12:00:51.327Z,7.28
2018-09-19T12:15:51.051Z,5.83
2018-09-19T12:30:51.183Z,5.90
2018-09-19T12:45:51.656Z,6.20
2018-09-19T13:00:49.919Z,5.08
2018-09-19T13:15:50.404Z,5.58
2018-09-19T13:30:49.929Z,5.90
2018-09-19T13:45:51.496Z,5.80
2018-09-19T14:00:51.180Z,6.45
2018-09-19T14:15:50.827Z,6.75
2018-09-19T14:30:50.838Z,6.95
2018-09-19T14:45:51.073Z,8.30
2018-09-19T15:00:51.021Z,6.30
2018-09-19T15:15:50.863Z,6.83
2018-09-19T15:30:50.775Z,5.60
2018-09-19T15:45:50.799Z,6.75
2018-09-19T16:00:50.357Z,6.70
2018-09-19T16:15:52.343Z,6.35
2018-09-19T16:30:50.792Z,6.85
2018-09-19T16:45:51.147Z,6.22
